createdAt,value
2018-05-14T00:01:27.190Z,81.59
2018-05-14T00:03:55.663Z,80.98
2018-05-14T00:06:24.075Z,80.90
2018-05-14T00:08:52.543Z,81.06
2018-05-14T00:11:20.935Z,81.92
2018-05-14T00:13:49.347Z,81.63
2018-05-14T00:16:17.827Z,81.28
2018-05-14T00:18:46.246Z,80.94
2018-05-14T00:21:14.682Z,81.55
2018-05-14T00:23:43.150Z,81.04
2018-05-14T00:26:11.657Z,81.21
2018-05-14T00:28:40.184Z,82.00
2018-05-14T00:31:08.604Z,81.46
2018-05-14T00:33:37.046Z,80.09
2018-05-14T00:36:05.552Z,79.80
2018-05-14T00:38:33.968Z,80.51
2018-05-14T00:41:02.417Z,80.08
2018-05-14T00:43:30.854Z,80.61
2018-05-14T00:45:59.271Z,80.50
2018-05-14T00:48:27.729Z,80.21
2018-05-14T00:50:56.183Z,79.82
2018-05-14T00:53:24.647Z,80.48
2018-05-14T00:55:53.107Z,81.03
2018-05-14T00:58:21.504Z,81.80
2018-05-14T01:00:50.040Z,81.64
2018-05-14T01:03:18.447Z,81.63
2018-05-14T01:05:46.924Z,82.04
2018-05-14T01:08:15.353Z,81.74
2018-05-14T01:10:43.850Z,81.00
2018-05-14T01:13:12.307Z,80.86
2018-05-14T01:15:40.788Z,80.59
2018-05-14T01:18:09.224Z,81.57
2018-05-14T01:20:37.659Z,80.90
2018-05-14T01:23:06.057Z,81.09
2018-05-14T01:25:34.498Z,82.54
2018-05-14T01:28:02.992Z,83.10
2018-05-14T01:30:31.465Z,81.56
2018-05-14T01:32:59.865Z,79.63
2018-05-14T01:35:28.541Z,80.01
2018-05-14T01:37:56.933Z,81.87
2018-05-14T01:40:25.381Z,82.89
2018-05-14T01:42:53.769Z,81.02
2018-05-14T01:45:22.228Z,80.04
2018-05-14T01:47:50.632Z,80.91
2018-05-14T01:50:19.092Z,81.30
2018-05-14T01:52:47.492Z,80.61
2018-05-14T01:55:15.966Z,80.53
2018-05-14T01:57:44.378Z,80.69
2018-05-14T02:00:12.822Z,80.22
2018-05-14T02:02:41.240Z,80.70
2018-05-14T02:05:09.684Z,81.61
2018-05-14T02:07:38.092Z,81.65
2018-05-14T02:10:06.515Z,81.47
2018-05-14T02:12:34.951Z,81.44
2018-05-14T02:15:03.513Z,81.06
2018-05-14T02:17:31.957Z,80.92
2018-05-14T02:20:00.367Z,82.24
2018-05-14T02:22:28.855Z,80.42
2018-05-14T02:24:57.260Z,80.44
2018-05-14T02:27:25.704Z,80.35
2018-05-14T02:29:54.165Z,80.63
2018-05-14T02:32:22.600Z,80.53
2018-05-14T02:34:51.051Z,80.36
2018-05-14T02:37:19.494Z,80.78
2018-05-14T02:39:47.909Z,80.52
2018-05-14T02:42:16.364Z,80.75
2018-05-14T02:44:44.788Z,81.89
2018-05-14T02:47:13.225Z,80.94
2018-05-14T02:49:41.652Z,81.24
2018-05-14T02:52:10.108Z,81.36
2018-05-14T02:54:38.576Z,81.83
2018-05-14T02:57:07.008Z,81.59
2018-05-14T02:59:35.466Z,81.69
2018-05-14T03:02:03.928Z,81.37
2018-05-14T03:04:32.340Z,81.27
2018-05-14T03:07:00.747Z,81.24
2018-05-14T03:09:29.157Z,81.46
2018-05-14T03:11:57.704Z,81.64
2018-05-14T03:14:26.145Z,81.62
2018-05-14T03:16:54.595Z,82.56
2018-05-14T03:19:23.028Z,82.16
2018-05-14T03:21:51.436Z,82.08
2018-05-14T03:24:19.873Z,82.84
2018-05-14T03:26:48.322Z,82.69
2018-05-14T03:29:16.750Z,81.83
2018-05-14T03:31:45.197Z,82.09
2018-05-14T03:34:13.715Z,81.82
2018-05-14T03:36:42.115Z,81.41
2018-05-14T03:39:10.534Z,82.01
2018-05-14T03:41:39.010Z,81.99
2018-05-14T03:44:07.450Z,81.08
2018-05-14T03:46:35.919Z,81.10
2018-05-14T03:49:04.339Z,80.78
2018-05-14T03:51:32.827Z,80.44
2018-05-14T03:54:01.257Z,80.02
2018-05-14T03:56:29.651Z,81.71
2018-05-14T03:59:10.209Z,81.25
2018-05-14T04:01:50.375Z,81.41
2018-05-14T04:04:30.623Z,81.11
2018-05-14T04:06:59.066Z,80.68
2018-05-14T04:09:27.540Z,80.81
2018-05-14T04:11:56.894Z,80.34
2018-05-14T04:14:25.423Z,79.90
2018-05-14T04:16:53.857Z,79.61
2018-05-14T04:19:22.267Z,79.27
2018-05-14T04:21:50.759Z,79.02
2018-05-14T04:24:19.226Z,78.92
2018-05-14T04:26:47.640Z,77.95
2018-05-14T04:29:16.078Z,77.82
2018-05-14T04:31:44.564Z,77.34
2018-05-14T04:34:13.022Z,76.84
2018-05-14T04:36:41.495Z,76.93
2018-05-14T04:39:09.982Z,78.67
2018-05-14T04:41:38.523Z,77.17
2018-05-14T04:44:06.979Z,75.15
2018-05-14T04:46:35.383Z,76.54
2018-05-14T04:49:03.840Z,77.83
2018-05-14T04:51:32.297Z,77.06
2018-05-14T04:54:00.800Z,76.51
2018-05-14T04:56:29.248Z,76.21
2018-05-14T04:58:57.666Z,75.84
2018-05-14T05:01:26.135Z,76.07
2018-05-14T05:03:54.611Z,76.56
2018-05-14T05:06:23.149Z,75.88
2018-05-14T05:08:51.615Z,75.61
2018-05-14T05:11:20.008Z,77.43
2018-05-14T05:13:48.726Z,78.11
2018-05-14T05:16:17.173Z,77.87
2018-05-14T05:18:45.639Z,76.50
2018-05-14T05:21:14.153Z,76.43
2018-05-14T05:23:42.571Z,76.93
2018-05-14T05:26:11.040Z,75.93
2018-05-14T05:28:39.511Z,74.13
2018-05-14T05:31:07.953Z,74.16
2018-05-14T05:33:36.367Z,74.44
2018-05-14T05:36:04.836Z,73.79
2018-05-14T05:38:33.290Z,72.14
2018-05-14T05:41:01.716Z,70.68
2018-05-14T05:43:30.220Z,70.93
2018-05-14T05:45:58.776Z,71.01
2018-05-14T05:48:27.201Z,70.70
2018-05-14T05:50:55.608Z,70.32
2018-05-14T05:53:24.072Z,70.96
2018-05-14T05:55:52.528Z,70.96
2018-05-14T05:58:21.007Z,70.53
2018-05-14T06:00:49.659Z,69.74
2018-05-14T06:03:18.059Z,69.20
2018-05-14T06:05:46.452Z,69.41
2018-05-14T06:08:14.924Z,66.58
2018-05-14T06:10:43.328Z,65.73
2018-05-14T06:13:11.796Z,65.18
2018-05-14T06:15:40.227Z,65.32
2018-05-14T06:18:08.634Z,66.12
2018-05-14T06:20:37.089Z,65.00
2018-05-14T06:23:05.602Z,64.83
2018-05-14T06:25:34.038Z,64.88
2018-05-14T06:28:02.516Z,64.52
2018-05-14T06:30:30.940Z,63.22
2018-05-14T06:32:59.389Z,61.39
2018-05-14T06:35:27.829Z,62.84
2018-05-14T06:37:56.697Z,62.83
2018-05-14T06:40:24.950Z,63.03
2018-05-14T06:42:53.403Z,64.27
2018-05-14T06:45:21.823Z,63.38
2018-05-14T06:47:50.305Z,63.09
2018-05-14T06:50:18.827Z,62.63
2018-05-14T06:52:47.308Z,63.18
2018-05-14T06:55:15.797Z,62.99
2018-05-14T06:57:44.278Z,62.71
2018-05-14T07:00:12.727Z,63.55
2018-05-14T07:02:41.208Z,63.44
2018-05-14T07:05:09.612Z,60.86
2018-05-14T07:07:38.071Z,59.35
2018-05-14T07:10:06.443Z,58.12
2018-05-14T07:12:34.903Z,58.12
2018-05-14T07:15:03.366Z,59.93
2018-05-14T07:17:31.849Z,58.06
2018-05-14T07:20:00.303Z,59.45
2018-05-14T07:22:28.703Z,57.07
2018-05-14T07:24:57.143Z,56.35
2018-05-14T07:27:25.558Z,56.64
2018-05-14T07:29:54.029Z,57.69
2018-05-14T07:32:22.449Z,56.10
2018-05-14T07:34:50.920Z,55.51
2018-05-14T07:37:19.350Z,57.41
2018-05-14T07:39:48.159Z,57.35
2018-05-14T07:42:16.621Z,57.69
2018-05-14T07:44:45.123Z,54.86
2018-05-14T07:47:13.585Z,54.53
2018-05-14T07:49:42.025Z,53.23
2018-05-14T07:52:10.478Z,49.24
2018-05-14T07:54:38.936Z,47.99
2018-05-14T07:57:07.415Z,48.85
2018-05-14T07:59:35.818Z,50.07
2018-05-14T08:02:04.293Z,51.13
2018-05-14T08:04:32.759Z,53.85
2018-05-14T08:07:01.226Z,53.60
2018-05-14T08:09:29.680Z,56.65
2018-05-14T08:11:58.267Z,56.91
2018-05-14T08:14:26.708Z,56.04
2018-05-14T08:16:55.174Z,50.63
2018-05-14T08:19:23.639Z,48.38
2018-05-14T08:21:52.081Z,46.04
2018-05-14T08:24:20.523Z,44.99
2018-05-14T08:26:48.987Z,44.03
2018-05-14T08:29:17.524Z,44.31
2018-05-14T08:31:45.967Z,42.44
2018-05-14T08:34:14.472Z,41.36
2018-05-14T08:36:43.319Z,41.82
2018-05-14T08:39:11.706Z,40.90
2018-05-14T08:41:40.123Z,39.29
2018-05-14T08:44:08.859Z,42.84
2018-05-14T08:46:37.263Z,41.39
2018-05-14T08:49:05.665Z,41.79
2018-05-14T08:51:34.516Z,41.68
2018-05-14T08:54:02.967Z,40.89
2018-05-14T08:56:31.422Z,41.01
2018-05-14T08:58:59.863Z,40.48
2018-05-14T09:01:29.170Z,40.17
2018-05-14T09:03:57.551Z,38.91
2018-05-14T09:06:27.142Z,40.24
2018-05-14T09:08:55.532Z,39.97
2018-05-14T09:11:23.920Z,40.48
2018-05-14T09:13:52.682Z,42.16
2018-05-14T09:16:21.095Z,41.62
2018-05-14T09:18:49.475Z,41.59
2018-05-14T09:21:18.254Z,40.45
2018-05-14T09:23:46.633Z,40.43
2018-05-14T09:26:15.016Z,39.15
2018-05-14T09:28:44.074Z,37.43
2018-05-14T09:31:12.923Z,37.07
2018-05-14T09:33:41.732Z,35.25
2018-05-14T09:36:10.551Z,37.58
2018-05-14T09:38:38.929Z,38.17
2018-05-14T09:41:07.344Z,37.83
2018-05-14T09:43:36.000Z,36.45
2018-05-14T09:46:04.418Z,36.34
2018-05-14T09:48:32.842Z,35.73
2018-05-14T09:51:01.651Z,37.41
2018-05-14T09:53:30.077Z,36.82
2018-05-14T09:55:58.451Z,36.05
2018-05-14T09:58:27.234Z,37.67
2018-05-14T10:00:55.631Z,38.54
2018-05-14T10:03:24.019Z,38.58
2018-05-14T10:05:52.812Z,37.42
2018-05-14T10:08:21.198Z,36.03
2018-05-14T10:10:49.619Z,36.98
2018-05-14T10:13:18.403Z,34.05
2018-05-14T10:15:46.795Z,33.45
2018-05-14T10:18:15.191Z,35.11
2018-05-14T10:20:43.755Z,37.21
2018-05-14T10:23:12.158Z,50.56
2018-05-14T10:25:40.547Z,53.29
2018-05-14T10:28:09.291Z,53.60
2018-05-14T10:30:37.688Z,54.64
2018-05-14T10:33:06.080Z,55.46
2018-05-14T10:35:34.940Z,55.54
2018-05-14T10:38:03.340Z,54.71
2018-05-14T10:40:31.744Z,55.47
2018-05-14T10:43:00.495Z,56.52
2018-05-14T10:45:28.906Z,56.87
2018-05-14T10:47:57.357Z,57.14
2018-05-14T10:50:26.162Z,58.37
2018-05-14T10:52:54.644Z,58.79
2018-05-14T10:55:23.034Z,57.88
2018-05-14T10:57:51.803Z,57.04
2018-05-14T11:00:20.215Z,56.58
2018-05-14T11:02:48.603Z,56.52
2018-05-14T11:05:17.342Z,57.44
2018-05-14T11:07:45.739Z,60.54
2018-05-14T11:10:14.267Z,60.18
2018-05-14T11:12:43.113Z,59.96
2018-05-14T11:15:11.530Z,60.52
2018-05-14T11:17:39.955Z,56.28
2018-05-14T11:20:08.647Z,62.35
2018-05-14T11:22:37.059Z,65.00
2018-05-14T11:25:05.574Z,65.87
2018-05-14T11:27:34.491Z,66.72
2018-05-14T11:30:02.847Z,67.47
2018-05-14T11:32:31.280Z,71.29
2018-05-14T11:34:59.909Z,73.77
2018-05-14T11:37:28.300Z,75.04
2018-05-14T11:39:56.721Z,77.80
2018-05-14T11:42:25.404Z,78.79
2018-05-14T11:44:53.795Z,79.32
2018-05-14T11:47:22.198Z,77.09
2018-05-14T11:49:51.044Z,77.51
2018-05-14T11:52:19.448Z,72.69
2018-05-14T11:54:47.968Z,69.05
2018-05-14T11:57:16.719Z,69.46
2018-05-14T11:59:45.139Z,70.00
2018-05-14T12:02:13.519Z,69.16
2018-05-14T12:04:42.148Z,67.87
2018-05-14T12:07:10.544Z,62.07
2018-05-14T12:09:39.017Z,62.26
2018-05-14T12:12:07.497Z,54.46
2018-05-14T12:14:35.880Z,55.45
2018-05-14T12:17:04.276Z,55.33
2018-05-14T12:19:33.017Z,52.02
2018-05-14T12:22:01.436Z,49.29
2018-05-14T12:24:29.853Z,45.84
2018-05-14T12:26:58.475Z,39.89
2018-05-14T12:29:26.905Z,39.38
2018-05-14T12:31:55.319Z,38.89
2018-05-14T12:34:23.744Z,37.60
2018-05-14T12:36:52.127Z,36.18
2018-05-14T12:39:20.523Z,32.63
2018-05-14T12:41:49.231Z,32.37
2018-05-14T12:44:17.636Z,33.18
2018-05-14T12:46:46.064Z,34.41
2018-05-14T12:49:14.844Z,41.11
2018-05-14T12:51:43.328Z,40.96
2018-05-14T12:54:11.721Z,41.04
2018-05-14T12:56:40.227Z,43.03
2018-05-14T12:59:08.624Z,42.98
2018-05-14T13:01:37.039Z,44.64
2018-05-14T13:04:05.815Z,44.40
2018-05-14T13:06:34.199Z,44.56
2018-05-14T13:09:02.601Z,44.57
2018-05-14T13:11:31.127Z,46.24
2018-05-14T13:13:59.546Z,46.62
2018-05-14T13:16:28.653Z,46.95
2018-05-14T13:18:57.823Z,47.46
2018-05-14T13:21:26.676Z,43.45
2018-05-14T13:23:55.144Z,43.41
2018-05-14T13:26:23.681Z,37.76
2018-05-14T13:28:52.201Z,37.01
2018-05-14T13:31:20.670Z,36.49
2018-05-14T13:33:49.331Z,37.98
2018-05-14T13:36:17.737Z,39.98
2018-05-14T13:38:46.151Z,41.49
2018-05-14T13:41:14.939Z,39.27
2018-05-14T13:43:43.344Z,35.92
2018-05-14T13:46:11.758Z,37.35
2018-05-14T13:48:40.431Z,36.62
2018-05-14T13:51:08.967Z,37.91
2018-05-14T13:53:37.383Z,39.09
2018-05-14T13:56:05.854Z,36.71
2018-05-14T13:58:34.304Z,34.09
2018-05-14T14:01:02.722Z,34.79
2018-05-14T14:03:31.526Z,36.89
2018-05-14T14:05:59.914Z,39.13
2018-05-14T14:08:28.289Z,39.31
2018-05-14T14:10:57.086Z,39.29
2018-05-14T14:13:25.524Z,41.18
2018-05-14T14:15:53.959Z,42.12
2018-05-14T14:18:22.396Z,43.17
2018-05-14T14:20:50.784Z,44.68
2018-05-14T14:23:19.299Z,44.81
2018-05-14T14:25:47.979Z,46.28
2018-05-14T14:28:16.383Z,46.81
2018-05-14T14:30:45.612Z,46.51
2018-05-14T14:33:14.251Z,47.00
2018-05-14T14:35:42.654Z,46.47
2018-05-14T14:38:11.060Z,46.87
2018-05-14T14:40:39.816Z,47.48
2018-05-14T14:43:08.287Z,47.22
2018-05-14T14:45:36.705Z,46.98
2018-05-14T14:48:05.461Z,47.18
2018-05-14T14:50:33.853Z,46.36
2018-05-14T14:53:02.328Z,46.97
2018-05-14T14:55:30.979Z,47.22
2018-05-14T14:57:59.374Z,47.55
2018-05-14T15:00:27.761Z,46.89
2018-05-14T15:02:56.196Z,46.79
2018-05-14T15:05:24.689Z,45.60
2018-05-14T15:07:53.075Z,46.04
2018-05-14T15:10:21.679Z,45.46
2018-05-14T15:12:50.078Z,45.78
2018-05-14T15:15:18.460Z,46.34
2018-05-14T15:17:47.124Z,46.20
2018-05-14T15:20:15.623Z,46.26
2018-05-14T15:22:44.032Z,45.96
2018-05-14T15:25:12.664Z,46.62
2018-05-14T15:27:41.112Z,47.54
2018-05-14T15:30:09.562Z,47.02
2018-05-14T15:32:38.208Z,47.28
2018-05-14T15:35:06.595Z,48.06
2018-05-14T15:37:34.996Z,49.67
2018-05-14T15:40:03.780Z,49.92
2018-05-14T15:42:32.312Z,50.83
2018-05-14T15:45:00.736Z,51.16
2018-05-14T15:47:29.194Z,51.42
2018-05-14T15:49:57.813Z,51.98
2018-05-14T15:52:26.226Z,51.90
2018-05-14T15:54:54.981Z,51.92
2018-05-14T15:57:23.366Z,52.02
2018-05-14T15:59:51.769Z,51.46
2018-05-14T16:02:20.515Z,51.25
2018-05-14T16:04:48.936Z,52.35
2018-05-14T16:07:17.389Z,53.00
2018-05-14T16:09:45.900Z,52.64
2018-05-14T16:12:14.292Z,53.04
2018-05-14T16:14:42.750Z,53.62
2018-05-14T16:17:11.512Z,54.04
2018-05-14T16:19:39.920Z,54.74
2018-05-14T16:22:08.323Z,55.50
2018-05-14T16:24:36.955Z,56.48
2018-05-14T16:27:05.347Z,55.67
2018-05-14T16:29:33.775Z,55.22
2018-05-14T16:32:02.427Z,55.57
2018-05-14T16:34:30.831Z,54.91
2018-05-14T16:36:59.247Z,55.88
2018-05-14T16:39:28.152Z,56.85
2018-05-14T16:41:56.694Z,56.55
2018-05-14T16:44:25.058Z,56.77
2018-05-14T16:46:53.577Z,56.79
2018-05-14T16:49:22.010Z,56.17
2018-05-14T16:51:50.415Z,56.27
2018-05-14T16:54:19.206Z,57.38
2018-05-14T16:56:47.633Z,58.23
2018-05-14T16:59:16.117Z,58.68
2018-05-14T17:01:45.131Z,60.06
2018-05-14T17:04:13.656Z,60.28
2018-05-14T17:06:42.024Z,60.91
2018-05-14T17:09:10.859Z,62.92
2018-05-14T17:11:39.312Z,63.76
2018-05-14T17:14:07.820Z,69.48
2018-05-14T17:16:36.608Z,69.38
2018-05-14T17:19:05.008Z,71.94
2018-05-14T17:21:33.446Z,73.04
2018-05-14T17:24:01.886Z,72.81
2018-05-14T17:26:30.392Z,72.95
2018-05-14T17:28:58.747Z,72.88
2018-05-14T17:31:27.403Z,73.70
2018-05-14T17:33:55.788Z,72.95
2018-05-14T17:36:24.242Z,74.18
2018-05-14T17:38:52.965Z,73.99
2018-05-14T17:41:21.403Z,73.62
2018-05-14T17:43:49.800Z,72.49
2018-05-14T17:46:18.570Z,73.67
2018-05-14T17:48:47.025Z,72.84
2018-05-14T17:51:15.445Z,72.63
2018-05-14T17:53:43.889Z,72.99
2018-05-14T17:56:12.296Z,72.51
2018-05-14T17:58:40.711Z,73.24
2018-05-14T18:01:09.470Z,73.68
2018-05-14T18:03:37.903Z,73.64
2018-05-14T18:06:06.314Z,74.59
2018-05-14T18:08:35.147Z,73.65
2018-05-14T18:11:03.610Z,72.03
2018-05-14T18:13:32.020Z,72.56
2018-05-14T18:16:00.868Z,73.11
2018-05-14T18:18:29.284Z,74.09
2018-05-14T18:21:00.516Z,73.69
2018-05-14T18:23:29.332Z,73.80
2018-05-14T18:26:18.439Z,73.99
2018-05-14T18:28:49.951Z,74.49
2018-05-14T18:31:24.030Z,74.57
2018-05-14T18:33:54.415Z,75.07
2018-05-14T18:36:22.833Z,74.22
2018-05-14T18:38:51.253Z,73.46
2018-05-14T18:41:20.336Z,74.21
2018-05-14T18:43:48.729Z,73.52
2018-05-14T18:46:17.125Z,74.86
2018-05-14T18:48:45.915Z,74.58
2018-05-14T18:51:14.374Z,74.95
2018-05-14T18:53:42.782Z,74.54
2018-05-14T18:56:11.527Z,75.94
2018-05-14T18:58:39.928Z,75.65
2018-05-14T19:01:08.452Z,74.91
2018-05-14T19:03:37.294Z,76.57
2018-05-14T19:06:05.727Z,76.26
2018-05-14T19:08:34.126Z,74.86
2018-05-14T19:11:08.358Z,76.21
2018-05-14T19:13:36.751Z,77.75
2018-05-14T19:16:10.819Z,78.35
2018-05-14T19:18:39.319Z,78.36
2018-05-14T19:21:07.706Z,77.42
2018-05-14T19:23:41.782Z,76.28
2018-05-14T19:26:10.198Z,77.02
2018-05-14T19:28:44.727Z,77.81
2018-05-14T19:31:13.136Z,76.98
2018-05-14T19:33:47.410Z,77.82
2018-05-14T19:36:15.798Z,77.84
2018-05-14T19:38:44.198Z,76.68
2018-05-14T19:41:12.694Z,77.75
2018-05-14T19:43:41.114Z,77.05
2018-05-14T19:46:09.519Z,77.17
2018-05-14T19:48:38.066Z,78.54
2018-05-14T19:51:06.467Z,78.47
2018-05-14T19:53:34.879Z,77.37
2018-05-14T19:56:03.989Z,76.77
2018-05-14T19:58:32.411Z,76.73
2018-05-14T20:01:00.946Z,76.53
2018-05-14T20:03:29.789Z,76.74
2018-05-14T20:08:31.923Z,76.92
2018-05-14T20:11:00.346Z,77.75
2018-05-14T20:13:28.771Z,78.48
2018-05-14T20:15:57.685Z,78.36
2018-05-14T20:18:26.137Z,78.12
2018-05-14T20:20:54.685Z,79.06
2018-05-14T20:23:23.339Z,79.58
2018-05-14T20:25:51.755Z,80.20
2018-05-14T20:28:20.170Z,80.85
2018-05-14T20:30:48.966Z,80.78
2018-05-14T20:33:17.399Z,81.29
2018-05-14T20:35:45.804Z,80.91
2018-05-14T20:38:14.946Z,80.32
2018-05-14T20:40:43.364Z,80.00
2018-05-14T20:43:11.804Z,79.34
2018-05-14T20:45:40.685Z,78.67
2018-05-14T20:48:09.089Z,80.07
2018-05-14T20:50:37.548Z,80.54
2018-05-14T20:53:06.436Z,82.08
2018-05-14T20:55:34.831Z,82.17
2018-05-14T20:58:03.281Z,81.12
2018-05-14T21:00:32.084Z,82.10
2018-05-14T21:03:00.519Z,82.64
2018-05-14T21:05:28.957Z,82.70
2018-05-14T21:07:57.848Z,82.92
2018-05-14T21:10:26.256Z,82.71
2018-05-14T21:12:54.971Z,81.58
2018-05-14T21:15:23.681Z,80.89
2018-05-14T21:17:52.071Z,81.28
2018-05-14T21:20:20.459Z,82.43
2018-05-14T21:22:49.229Z,82.06
2018-05-14T21:25:17.659Z,83.29
2018-05-14T21:27:46.074Z,83.61
2018-05-14T21:30:14.699Z,83.79
2018-05-14T21:32:43.134Z,83.99
2018-05-14T21:35:11.540Z,82.48
2018-05-14T21:37:40.078Z,83.04
2018-05-14T21:40:08.459Z,82.62
2018-05-14T21:42:36.902Z,82.19
2018-05-14T21:45:05.552Z,83.43
2018-05-14T21:47:33.981Z,85.11
2018-05-14T21:50:02.427Z,84.13
2018-05-14T21:52:30.951Z,83.67
2018-05-14T21:54:59.379Z,83.02
2018-05-14T21:57:27.774Z,82.86
2018-05-14T21:59:56.200Z,82.42
2018-05-14T22:02:24.631Z,82.72
2018-05-14T22:04:53.037Z,83.07
2018-05-14T22:07:21.726Z,84.46
2018-05-14T22:09:50.161Z,84.94
2018-05-14T22:12:18.658Z,83.26
2018-05-14T22:14:47.480Z,83.35
2018-05-14T22:17:15.870Z,84.63
2018-05-14T22:19:44.363Z,84.33
2018-05-14T22:22:12.746Z,84.86
2018-05-14T22:24:41.164Z,83.43
2018-05-14T22:27:09.620Z,83.17
2018-05-14T22:29:38.106Z,83.21
2018-05-14T22:32:06.516Z,82.92
2018-05-14T22:34:34.925Z,82.85
2018-05-14T22:37:03.684Z,82.68
2018-05-14T22:39:32.102Z,82.34
2018-05-14T22:42:00.545Z,82.92
2018-05-14T22:44:29.354Z,83.58
2018-05-14T22:46:57.758Z,82.90
2018-05-14T22:49:26.166Z,82.40
2018-05-14T22:51:55.013Z,82.53
2018-05-14T22:54:35.298Z,82.34
2018-05-14T22:57:04.120Z,82.93
2018-05-14T22:59:32.547Z,81.39
2018-05-14T23:02:00.971Z,81.31
2018-05-14T23:04:29.424Z,81.35
2018-05-14T23:06:57.857Z,81.35
2018-05-14T23:09:26.270Z,82.30
2018-05-14T23:11:54.953Z,81.94
2018-05-14T23:14:23.349Z,82.08
2018-05-14T23:16:51.760Z,81.64
2018-05-14T23:19:20.600Z,80.79
2018-05-14T23:21:49.004Z,80.35
2018-05-14T23:24:17.421Z,79.96
2018-05-14T23:26:46.039Z,80.43
2018-05-14T23:29:14.442Z,80.03
2018-05-14T23:31:42.849Z,80.16
2018-05-14T23:34:11.796Z,80.35
2018-05-14T23:36:40.207Z,80.77
2018-05-14T23:39:08.634Z,80.57
2018-05-14T23:41:37.351Z,80.69
2018-05-14T23:44:05.764Z,80.78
2018-05-14T23:46:34.211Z,80.50
2018-05-14T23:49:02.809Z,82.20
2018-05-14T23:51:31.203Z,81.71
2018-05-14T23:53:59.619Z,81.52
2018-05-14T23:56:28.379Z,81.35
2018-05-14T23:58:56.778Z,80.77
